OERKOEGN

Guest
Details From OERK - Riyadh King Khaled Intl
To OEGN - KING ABDULLAH BIN ABDULAZIZ
Flight Number -
Tags decoded
Created
Modified
Stats Distance 544 nm / 1,007 km
Max Altitude 0 ft / 0 m
Waypoints 4
Social Downloads 0
Likes 0
Share VATSIM

Download

Looking for another format? Having issues loading an existing format? Contact us
Advertisement - Login to hide

Notes

Requested: OERK UMRAN BISHA OEAB OEGN Unmatched points: BISHA

Route

OERK UMRAN OEAB OEGN

ID Type Via Altitude Latitude Longitude Leg Dist Tot Dist Heading (true) Name
O OERK APT - 0 ft / 0 m 24.95745˚ 46.69884˚ - 0 nm - Riyadh King Khaled Intl
UMRAN FIX - 0 ft / 0 m 23.25222˚ 45.33972˚ 126 nm 126 nm 216° / 216° -
OEAB APT - 0 ft / 0 m 18.24038˚ 42.65663˚ 336 nm 463 nm 207° / 206° ABHA
O OEGN APT - 0 ft / 0 m 16.90108˚ 42.58578˚ 80 nm 543 nm 183° / 183° KING ABDULLAH BIN ABDULAZIZ

Altitude Profile

Advertisement - Login to hide

Weather


0- 5 10 15 20 25 30 35+ Temperature / ° C

Clouds and Precipitation
Forecast for 2018-05-22 00:00 UTC. Updated 6 hours ago

Ground ~20,000 ft ~40,000 ft Winds

OERK

Details ICAO OERK (RUH)
Name Riyadh King Khaled Intl
Region Saudi Arabia
Timezone Asia/Riyadh (UTC+3.0)
Stats Elevation 2,049 ft / 625 m (AMSL)
Location 24.957449° 46.698842°
Runways 2
Magnetic Variation 3.062° E

METAR

OERK 220500Z 00000KT CAVOK 32/M01 Q1015 NOSIG

Decode

TAF

TAF OERK 211700Z 2118/2224 06006KT CAVOK BECMG 2204/2206 15012KT

Decode

Departure Runways

ID Width Length Bearing (true) Bearing (mag) Surface Threshold Offset Overrun Length
15L 197 ft / 60 m 13,832 ft / 4,216 m 150.17° 147.11° Asphalt 0 ft / 0 m 385 ft / 117 m
15R 197 ft / 60 m 13,835 ft / 4,217 m 150.16° 147.10° Asphalt 0 ft / 0 m 385 ft / 117 m
33L 197 ft / 60 m 13,835 ft / 4,217 m 330.17° 327.11° Asphalt 0 ft / 0 m 385 ft / 117 m
33R 197 ft / 60 m 13,832 ft / 4,216 m 330.18° 327.12° Asphalt 0 ft / 0 m 385 ft / 117 m

OEGN

Details ICAO OEGN (GIZ)
Name KING ABDULLAH BIN ABDULAZIZ
Region Saudi Arabia
Timezone Asia/Riyadh (UTC+3.0)
Stats Elevation 20 ft / 6 m (AMSL)
Location 16.901080° 42.585782°
Runways 1
Magnetic Variation 2.657° E

METAR

OEGN 220400Z 10004KT 9000 NSC 31/22 Q1009 NOSIG

Decode

TAF

Not found

Destination Runways

ID Width Length Bearing (true) Bearing (mag) Surface Threshold Offset Overrun Length
15 148 ft / 45 m 10,046 ft / 3,062 m 150.15° 147.49° Asphalt 0 ft / 0 m 1,000 ft / 305 m
33 148 ft / 45 m 10,046 ft / 3,062 m 330.15° 327.49° Asphalt 0 ft / 0 m 1,000 ft / 305 m

Approach Navaids

Runway Type Ident Frequency Range Bearing (true) Bearing (mag) Slope Elevation
33 Localiser IGZN 109.90 MHz 18 nm / 33 km 330.16° 327.51° - 20 ft / 6 m (AMSL)
33 Glidescope IGZN 109.90 MHz 10 nm / 19 km 330.15° 327.49° 3.00° 20 ft / 6 m (AMSL)
33 DME IGZN 109.90 MHz 18 nm / 33 km - - - 20 ft / 6 m (AMSL)

Popular Alternatives